Terminal Aerodrome Forecast
Issued by NWS

Home | Current Version | Previous Version | Text Only | Print | Product List | Glossary On
Versions: 1 2 3 4 5 6 7 8 9 10 11 12 13 14 15 16 17 18 19 20 21 22 23 24 25
000
FTUS46 KLOX 030500
TAFOXR
TAF
KOXR 030532Z 0306/0406 VRB03KT P6SM OVC007
     FM031200 VRB03KT 4SM BR OVC004
     FM031800 27006KT 6SM HZ OVC008
     FM032100 27010KT P6SM BKN012
     FM040200 27008KT P6SM OVC008=

USA.gov is the U.S. government's official web portal to all federal, state and local government web resources and services.